Flight Track Log - Related Links

Times and Time Zones

All times are in EDT time to prevent confusion due to time zone crossing. See the C-GMYM flight status page for this flight to view local times or setup timezone preferences in your user account.

Time Position Orientation Groundspeed Altitude Reporting Facility
EDT Latitude Longitude Course Direction KTS MPH feet Rate Location/Type
Thu 09:23:42 AM 43.4500 -79.8667 216° Southwest 100 115 1,600  Level Toronto Center
Thu 09:24:42 AM 43.4333 -79.8833 216° Southwest 120 138 2,700 750 Climbing Toronto Center
Thu 09:25:42 AM 43.4167 -79.9333 245° Southwest 120 138 3,100 200 Climbing Toronto Center
Thu 09:26:42 AM 43.3833 -79.9500 200° South 150 173 3,100 500 Level Toronto Center
Thu 09:27:42 AM 43.3500 -80.0000 227° Southwest 150 173 4,100 1,000 Climbing Toronto Center
Thu 09:28:42 AM 43.3333 -80.0167 216° Southwest 120 138 5,100 950 Climbing Toronto Center
Thu 09:29:42 AM 43.3000 -80.0667 228° Southwest 110 127 6,000 500 Climbing Toronto Center
Thu 09:30:42 AM 43.2833 -80.0833 216° Southwest 130 150 6,100  Climbing Toronto Center
Thu 09:31:42 AM 43.2500 -80.1333 228° Southwest 140 161 6,000 -50 Descending Toronto Center
Thu 09:32:42 AM 43.2167 -80.1833 228° Southwest 150 173 6,000  Level Toronto Center
Thu 09:33:42 AM 43.1833 -80.2333 228° Southwest 150 173 6,000 50 Level Toronto Center
Thu 09:34:42 AM 43.1667 -80.2500 216° Southwest 150 173 6,100  Climbing Toronto Center
Thu 09:35:42 AM 43.1333 -80.3000 228° Southwest 150 173 6,000 -50 Descending Toronto Center
Thu 09:36:42 AM 43.1000 -80.3333 216° Southwest 150 173 6,000  Level Toronto Center
Thu 09:37:42 AM 43.0667 -80.3833 228° Southwest 150 173 6,000  Level Toronto Center
Thu 09:38:42 AM 43.0333 -80.4333 228° Southwest 150 173 6,000  Level Toronto Center
Thu 09:39:42 AM 43.0167 -80.4500 216° Southwest 150 173 6,000  Level Toronto Center
Thu 09:40:42 AM 42.9833 -80.5000 228° Southwest 150 173 6,000  Level Toronto Center
Thu 09:41:42 AM 42.9500 -80.5500 228° Southwest 150 173 6,000  Level Toronto Center
Thu 09:42:42 AM 42.9167 -80.5833 216° Southwest 150 173 6,000  Level Toronto Center
Thu 09:43:42 AM 42.8833 -80.6167 216° Southwest 150 173 6,000  Level Toronto Center
Thu 09:44:42 AM 42.8667 -80.6500 236° Southwest 150 173 6,000  Level Toronto Center
Thu 09:45:42 AM 42.8333 -80.7000 228° Southwest 150 173 6,000  Level Toronto Center
Thu 09:46:42 AM 42.8000 -80.7500 228° Southwest 150 173 6,000  Level Toronto Center
Thu 09:47:42 AM 42.7667 -80.7833 216° Southwest 150 173 6,000  Level Toronto Center
Thu 09:48:42 AM 42.7333 -80.8167 216° Southwest 150 173 6,000  Level Toronto Center
Thu 09:49:42 AM 42.7000 -80.8500 216° Southwest 150 173 6,000  Level Toronto Center
Thu 09:50:42 AM 42.6833 -80.9000 246° West 150 173 6,000  Level Toronto Center
Thu 09:51:42 AM 42.6667 -80.9667 251° West 150 173 6,000  Level Toronto Center
Thu 09:52:42 AM 42.6667 -81.0167 270° West 150 173 6,000  Level Toronto Center
Thu 09:53:42 AM 42.6500 -81.0667 246° West 150 173 6,000  Level Toronto Center
Thu 09:54:42 AM 42.6333 -81.1333 251° West 150 173 6,000  Level Toronto Center
Thu 09:55:42 AM 42.6333 -81.1667 270° West 150 173 6,000  Level Toronto Center
Thu 09:56:42 AM 42.6167 -81.2333 251° West 150 173 6,000  Level Toronto Center
Thu 09:57:42 AM 42.6000 -81.2833 246° West 150 173 6,000  Level Toronto Center
Thu 09:58:42 AM 42.6000 -81.3333 270° West 150 173 6,000  Level Toronto Center
Thu 09:59:42 AM 42.5833 -81.4000 251° West 160 184 6,000  Level Toronto Center
Thu 10:00:42 AM 42.5833 -81.4500 270° West 150 173 6,000  Level Toronto Center
Thu 10:01:42 AM 42.5667 -81.5167 251° West 150 173 6,000  Level Toronto Center
Thu 10:02:42 AM 42.5500 -81.5500 236° Southwest 150 173 6,000  Level Toronto Center
Thu 10:03:42 AM 42.5500 -81.6167 270° West 150 173 6,000  Level Toronto Center
Thu 10:04:42 AM 42.5333 -81.6667 246° West 150 173 6,000  Level Toronto Center
Thu 10:05:42 AM 42.5167 -81.7333 251° West 150 173 6,000  Level Toronto Center
Thu 10:06:42 AM 42.5167 -81.7833 270° West 150 173 6,000  Level Toronto Center
Thu 10:07:42 AM 42.5000 -81.8500 251° West 150 173 6,000  Level Toronto Center
Thu 10:08:42 AM 42.4833 -81.9000 246° West 150 173 6,000  Level Toronto Center
Thu 10:09:42 AM 42.4667 -81.9667 251° West 150 173 6,000  Level Toronto Center
Thu 10:10:42 AM 42.4500 -82.0000 236° Southwest 150 173 6,000  Level Toronto Center
Thu 10:11:42 AM 42.4500 -82.0667 270° West 150 173 6,000  Level Toronto Center
Thu 10:12:42 AM 42.4333 -82.1167 246° West 150 173 6,000  Level Toronto Center
Thu 10:13:42 AM 42.4167 -82.1833 251° West 150 173 6,000  Level Toronto Center
Thu 10:15:07 AM 42.4144 -82.2678 268° West 160 184 6,000  Level Cleveland Center
Thu 10:15:43 AM 42.4097 -82.3042 260° West 152 175 6,000  Level Cleveland Center
Thu 10:16:19 AM 42.4008 -82.3378 250° West 153 176 6,000  Level Cleveland Center
Thu 10:17:07 AM 42.3900 -82.3794 251° West 160 184 6,000  Level Cleveland Center
Thu 10:18:07 AM 42.3786 -82.4328 254° West 160 184 6,000  Level Cleveland Center
Thu 10:19:07 AM 42.3653 -82.4883 252° West 154 177 6,000  Level Cleveland Center
Thu 10:20:17 AM 42.3558 -82.5500 258° West 154 177 6,000  Level Cleveland Center
Thu 10:21:18 AM 42.3422 -82.6086 253° West 153 176 6,000  Level Cleveland Center
Thu 10:22:07 AM 42.3292 -82.6475 246° West 159 183 6,000  Level Cleveland Center
Thu 10:23:07 AM 42.3156 -82.7006 251° West 159 183 6,000  Level Cleveland Center
Thu 10:24:07 AM 42.2939 -82.7531 241° Southwest 159 183 6,000  Level Cleveland Center
Thu 10:25:07 AM 42.2719 -82.8000 238° Southwest 159 183 6,000  Level Cleveland Center
Thu 10:26:29 AM 42.2392 -82.8803 241° Southwest 158 182 6,000  Level Cleveland Center
Thu 10:27:23 AM 42.2194 -82.9244 239° Southwest 157 181 6,000  Level Cleveland Center
Thu 10:28:24 AM 42.2017 -82.9797 247° West 158 182 6,000  Level Cleveland Center
Thu 10:29:25 AM 42.1861 -83.0353 249° West 156 180 6,000  Level Cleveland Center
Thu 10:30:32 AM 42.1825 -83.0994 266° West 160 184 6,000  Level Cleveland Center
Thu 10:31:33 AM 42.1917 -83.1589 282° West 162 186 6,000  Level Cleveland Center
Thu 10:32:34 AM 42.2092 -83.2156 293° West 159 183 6,000  Level Cleveland Center
Thu 10:33:35 AM 42.2267 -83.2694 294° West 159 183 6,000  Level Cleveland Center
Thu 10:34:36 AM 42.2419 -83.3264 290° West 158 182 6,000  Level Cleveland Center
Thu 10:35:37 AM 42.2572 -83.3858 289° West 158 182 6,000  Level Cleveland Center
Thu 10:36:39 AM 42.2558 -83.4419 268° West 154 177 6,000  Level Cleveland Center
Thu 10:37:40 AM 42.2542 -83.5008 268° West 160 184 6,000  Level Cleveland Center
Thu 10:38:41 AM 42.2403 -83.5592 252° West 164 189 6,000  Level Cleveland Center
Thu 10:39:48 AM 42.2200 -83.6225 247° West 164 189 6,000  Level Cleveland Center
Thu 10:40:43 AM 42.2058 -83.6808 252° West 167 192 6,000 Level Cleveland Center
Thu 10:42:00 AM 42.1864 -83.7470 248° West  Level FlightAware Approximate
Thu 10:49:00 AM 42.0794 -84.1074 248° West  Level FlightAware Approximate
Thu 10:50:00 AM 42.0640 -84.1590 249° West  Level FlightAware Approximate
Thu 10:51:00 AM 42.0490 -84.2105 249° West  Level FlightAware Approximate
Thu 10:52:00 AM 42.0340 -84.2621 249° West  Level FlightAware Approximate
Thu 10:53:00 AM 42.0189 -84.3136 249° West  Level FlightAware Approximate
Thu 10:54:00 AM 42.0038 -84.3651 248° West  Level FlightAware Approximate
Thu 10:55:00 AM 41.9887 -84.4165 248° West  Level FlightAware Approximate
Thu 10:56:00 AM 41.9736 -84.4679 248° West  Level FlightAware Approximate
Thu 10:57:00 AM 41.9585 -84.5194 248° West  Level FlightAware Approximate
Thu 10:57:32 AM 41.9261 -84.6714 250° West 174 200 6,100  Level Chicago Center
Thu 10:58:00 AM 41.9433 -84.5707 248° West  Level FlightAware Approximate
Thu 10:58:34 AM 41.9086 -84.7319 249° West 175 201 6,100  Level Chicago Center
Thu 10:59:00 AM 41.9281 -84.6221 248° West  Level FlightAware Approximate
Thu 10:59:36 AM 41.8886 -84.8047 250° West 175 201 6,100  Level Chicago Center
Thu 11:00:00 AM 41.9128 -84.6734 248° West  Level FlightAware Approximate
Thu 11:00:38 AM 41.8706 -84.8658 248° West 175 201 6,100  Level Chicago Center
Thu 11:01:00 AM 41.8977 -84.7248 249° West  Level FlightAware Approximate
Thu 11:01:40 AM 41.8528 -84.9267 249° West 175 201 6,100  Level Chicago Center
Thu 11:02:00 AM 41.8590 -84.7618 250° West  Level FlightAware Approximate
Thu 11:02:43 AM 41.8356 -84.9864 249° West 174 200 6,100  Level Chicago Center
Thu 11:03:45 AM 41.8175 -85.0469 248° West 175 201 6,100  Level Chicago Center
Thu 11:04:47 AM 41.8000 -85.1075 249° West 174 200 6,100  Level Chicago Center
Thu 11:05:49 AM 41.7786 -85.1806 249° West 176 203 6,100  Level Chicago Center
Thu 11:06:51 AM 41.7614 -85.2403 249° West 175 201 6,100  Level Chicago Center
Thu 11:07:53 AM 41.7431 -85.3008 248° West 176 203 6,100  Level Chicago Center
Thu 11:08:55 AM 41.7258 -85.3608 249° West 175 201 6,100  Level Chicago Center
Thu 11:09:57 AM 41.7075 -85.4203 248° West 175 201 6,100  Level Chicago Center
Thu 11:10:59 AM 41.6867 -85.4917 249° West 176 203 6,100  Level Chicago Center
Thu 11:12:01 AM 41.6686 -85.5508 248° West 174 200 6,100  Level Chicago Center
Thu 11:13:03 AM 41.6508 -85.6119 249° West 177 204 6,100  Level Chicago Center
Thu 11:14:05 AM 41.6328 -85.6706 248° West 174 200 6,100  Level Chicago Center
Thu 11:15:07 AM 41.6147 -85.7303 248° West 173 199 6,100  Level Chicago Center
Thu 11:16:09 AM 41.5931 -85.8019 248° West 173 199 6,100  Level Chicago Center
Thu 11:17:11 AM 41.5750 -85.8611 248° West 174 200 6,100  Level Chicago Center
Thu 11:18:13 AM 41.5572 -85.9222 249° West 176 203 6,100  Level Chicago Center
Thu 11:19:15 AM 41.5389 -85.9819 248° West 175 201 6,100  Level Chicago Center
Thu 11:20:17 AM 41.5233 -86.0425 251° West 174 200 6,100  Level Chicago Center
Thu 11:21:19 AM 41.5247 -86.1186 271° West 171 197 6,100  Level Chicago Center
Thu 11:22:21 AM 41.5239 -86.1808 269° West 170 196 6,100  Level Chicago Center
Thu 11:23:23 AM 41.5233 -86.2436 269° West 170 196 6,100  Level Chicago Center
Thu 11:24:25 AM 41.5236 -86.3075 270° West 171 197 6,100  Level Chicago Center
Thu 11:25:27 AM 41.5225 -86.3692 269° West 169 194 6,100  Level Chicago Center
Thu 11:26:29 AM 41.5239 -86.4322 272° West 171 197 6,100  Level Chicago Center
Thu 11:27:31 AM 41.5219 -86.5078 268° West 170 196 6,100  Level Chicago Center
Thu 11:28:33 AM 41.5217 -86.5706 270° West 169 194 6,100  Level Chicago Center
Thu 11:29:35 AM 41.5217 -86.6331 270° West 170 196 6,100  Level Chicago Center
Thu 11:30:37 AM 41.5211 -86.6964 269° West 170 196 6,100  Level Chicago Center
Thu 11:31:39 AM 41.5208 -86.7650 270° West 170 196 6,100  Level Chicago Center
Thu 11:32:41 AM 41.5200 -86.8272 269° West 170 196 6,100  Level Chicago Center
Thu 11:33:43 AM 41.5192 -86.8900 269° West 170 196 6,100  Level Chicago Center
Thu 11:34:46 AM 41.5211 -86.9528 272° West 171 197 6,100  Level Chicago Center
Thu 11:35:48 AM 41.5383 -87.0228 288° West 166 191 6,100 -48 Level Chicago Center
Thu 11:36:50 AM 41.5525 -87.0814 288° West 166 191 6,000 -48 Descending Chicago Center
Thu 11:37:52 AM 41.5664 -87.1419 287° West 170 196 6,000  Level Chicago Center
Thu 11:38:54 AM 41.5786 -87.2022 285° West 170 196 6,000  Level Chicago Center
Thu 11:39:56 AM 41.5917 -87.2617 286° West 169 194 6,000 -145 Level Chicago Center
Thu 11:40:58 AM 41.6081 -87.3339 287° West 169 194 5,700 -387 Descending Chicago Center
Thu 11:42:00 AM 41.6225 -87.3981 287° West 177 204 5,200 -484 Descending Chicago Center
Thu 11:43:02 AM 41.6356 -87.4619 285° West 179 206 4,700 -484 Descending Chicago Center
Thu 11:44:04 AM 41.6497 -87.5264 286° West 180 207 4,200 -339 Descending Chicago Center
Thu 11:45:06 AM 41.6636 -87.5878 287° West 178 205 4,000 -581 Descending Chicago Center
Thu 11:46:08 AM 41.7011 -87.6375 315° West 166 191 3,000 -864 Descending Chicago Center
Thu 11:47:11 AM 41.7278 -87.6722 316° Northwest 153 176 2,200 -672 Descending Chicago Center
Thu 11:48:13 AM 41.7469 -87.7003 312° West 126 145 1,600 -532 Descending Chicago Center
Thu 11:49:15 AM 41.7694 -87.7325 313° West 117 135 1,100 -484 Descending Chicago Center

Login

Don't have an account? Register now (free) for customized features, flight alerts, and more!